sensor_id;sensor_type;location;lat;lon;timestamp;P1;durP1;ratioP1;P2;durP2;ratioP2
38457;SDS011;24239;48.058;10.486;2022-07-10T00:01:56;10.13;;;8.82;;
38457;SDS011;24239;48.058;10.486;2022-07-10T00:04:21;13.75;;;8.88;;
38457;SDS011;24239;48.058;10.486;2022-07-10T00:06:47;13.77;;;9.93;;
38457;SDS011;24239;48.058;10.486;2022-07-10T00:09:13;10.98;;;8.98;;
38457;SDS011;24239;48.058;10.486;2022-07-10T00:11:42;11.60;;;9.65;;
38457;SDS011;24239;48.058;10.486;2022-07-10T00:14:08;12.65;;;10.93;;
38457;SDS011;24239;48.058;10.486;2022-07-10T00:16:34;13.13;;;9.98;;
38457;SDS011;24239;48.058;10.486;2022-07-10T00:19:01;12.82;;;10.32;;
38457;SDS011;24239;48.058;10.486;2022-07-10T00:21:30;14.73;;;11.13;;
38457;SDS011;24239;48.058;10.486;2022-07-10T00:23:55;12.25;;;10.95;;
38457;SDS011;24239;48.058;10.486;2022-07-10T00:26:23;10.73;;;9.70;;
38457;SDS011;24239;48.058;10.486;2022-07-10T00:28:49;11.75;;;9.57;;
38457;SDS011;24239;48.058;10.486;2022-07-10T00:31:18;12.15;;;9.57;;
38457;SDS011;24239;48.058;10.486;2022-07-10T00:33:44;11.40;;;9.55;;
38457;SDS011;24239;48.058;10.486;2022-07-10T00:36:10;10.88;;;9.73;;
38457;SDS011;24239;48.058;10.486;2022-07-10T00:38:35;11.77;;;9.52;;
38457;SDS011;24239;48.058;10.486;2022-07-10T00:41:01;11.93;;;9.50;;
38457;SDS011;24239;48.058;10.486;2022-07-10T00:43:27;11.73;;;9.95;;
38457;SDS011;24239;48.058;10.486;2022-07-10T00:45:52;11.10;;;8.90;;
38457;SDS011;24239;48.058;10.486;2022-07-10T00:48:18;9.35;;;8.45;;
38457;SDS011;24239;48.058;10.486;2022-07-10T00:50:44;10.98;;;9.90;;
38457;SDS011;24239;48.058;10.486;2022-07-10T00:53:14;14.32;;;10.18;;
38457;SDS011;24239;48.058;10.486;2022-07-10T00:55:40;12.00;;;9.85;;
38457;SDS011;24239;48.058;10.486;2022-07-10T00:58:06;12.60;;;10.65;;
38457;SDS011;24239;48.058;10.486;2022-07-10T01:00:35;11.80;;;10.60;;
38457;SDS011;24239;48.058;10.486;2022-07-10T01:03:05;13.02;;;11.07;;
38457;SDS011;24239;48.058;10.486;2022-07-10T01:05:30;11.90;;;10.70;;
38457;SDS011;24239;48.058;10.486;2022-07-10T01:07:56;12.13;;;9.60;;
38457;SDS011;24239;48.058;10.486;2022-07-10T01:10:22;11.90;;;9.80;;
38457;SDS011;24239;48.058;10.486;2022-07-10T01:12:48;9.18;;;8.27;;
38457;SDS011;24239;48.058;10.486;2022-07-10T01:15:14;11.18;;;9.27;;
38457;SDS011;24239;48.058;10.486;2022-07-10T01:17:43;10.40;;;9.20;;
38457;SDS011;24239;48.058;10.486;2022-07-10T01:20:09;10.57;;;9.23;;
38457;SDS011;24239;48.058;10.486;2022-07-10T01:22:35;13.10;;;10.07;;
38457;SDS011;24239;48.058;10.486;2022-07-10T01:25:02;12.27;;;9.70;;
38457;SDS011;24239;48.058;10.486;2022-07-10T01:27:28;10.57;;;9.50;;
38457;SDS011;24239;48.058;10.486;2022-07-10T01:29:54;12.02;;;10.38;;
38457;SDS011;24239;48.058;10.486;2022-07-10T01:32:20;12.25;;;11.05;;
38457;SDS011;24239;48.058;10.486;2022-07-10T01:34:45;11.57;;;10.38;;
38457;SDS011;24239;48.058;10.486;2022-07-10T01:37:14;11.68;;;10.00;;
38457;SDS011;24239;48.058;10.486;2022-07-10T01:39:39;11.50;;;10.40;;
38457;SDS011;24239;48.058;10.486;2022-07-10T01:42:05;11.00;;;9.30;;
38457;SDS011;24239;48.058;10.486;2022-07-10T01:44:31;10.70;;;9.60;;
38457;SDS011;24239;48.058;10.486;2022-07-10T01:46:57;9.82;;;8.82;;
38457;SDS011;24239;48.058;10.486;2022-07-10T01:49:22;10.00;;;9.00;;
38457;SDS011;24239;48.058;10.486;2022-07-10T01:51:48;10.85;;;9.02;;
38457;SDS011;24239;48.058;10.486;2022-07-10T01:54:14;11.48;;;9.30;;
38457;SDS011;24239;48.058;10.486;2022-07-10T01:56:39;9.63;;;8.65;;
38457;SDS011;24239;48.058;10.486;2022-07-10T01:59:05;9.18;;;8.27;;
38457;SDS011;24239;48.058;10.486;2022-07-10T02:01:31;9.93;;;8.93;;
38457;SDS011;24239;48.058;10.486;2022-07-10T02:03:57;10.65;;;9.68;;
38457;SDS011;24239;48.058;10.486;2022-07-10T02:06:41;13.20;;;9.18;;
38457;SDS011;24239;48.058;10.486;2022-07-10T02:09:07;11.30;;;9.60;;
38457;SDS011;24239;48.058;10.486;2022-07-10T02:11:33;10.25;;;9.20;;
38457;SDS011;24239;48.058;10.486;2022-07-10T02:13:59;10.68;;;9.18;;
38457;SDS011;24239;48.058;10.486;2022-07-10T02:16:24;8.98;;;8.07;;
38457;SDS011;24239;48.058;10.486;2022-07-10T02:18:50;10.93;;;8.18;;
38457;SDS011;24239;48.058;10.486;2022-07-10T02:21:16;9.07;;;8.15;;
38457;SDS011;24239;48.058;10.486;2022-07-10T02:23:41;9.90;;;8.50;;
38457;SDS011;24239;48.058;10.486;2022-07-10T02:26:07;11.90;;;9.07;;
38457;SDS011;24239;48.058;10.486;2022-07-10T02:28:33;12.93;;;9.10;;
38457;SDS011;24239;48.058;10.486;2022-07-10T02:30:59;10.32;;;9.23;;
38457;SDS011;24239;48.058;10.486;2022-07-10T02:33:25;10.38;;;9.35;;
38457;SDS011;24239;48.058;10.486;2022-07-10T02:35:51;10.80;;;9.10;;
38457;SDS011;24239;48.058;10.486;2022-07-10T02:38:17;9.93;;;8.95;;
38457;SDS011;24239;48.058;10.486;2022-07-10T02:40:43;13.63;;;8.95;;
38457;SDS011;24239;48.058;10.486;2022-07-10T02:43:09;9.18;;;8.27;;
38457;SDS011;24239;48.058;10.486;2022-07-10T02:45:34;9.90;;;8.93;;
38457;SDS011;24239;48.058;10.486;2022-07-10T02:48:00;10.15;;;9.15;;
38457;SDS011;24239;48.058;10.486;2022-07-10T02:50:26;10.85;;;9.75;;
38457;SDS011;24239;48.058;10.486;2022-07-10T02:52:51;11.70;;;10.02;;
38457;SDS011;24239;48.058;10.486;2022-07-10T02:55:17;10.55;;;9.48;;
38457;SDS011;24239;48.058;10.486;2022-07-10T02:57:43;11.43;;;9.68;;
38457;SDS011;24239;48.058;10.486;2022-07-10T03:00:09;10.80;;;8.98;;
38457;SDS011;24239;48.058;10.486;2022-07-10T03:02:36;10.63;;;9.52;;
38457;SDS011;24239;48.058;10.486;2022-07-10T03:05:02;11.93;;;10.07;;
38457;SDS011;24239;48.058;10.486;2022-07-10T03:07:28;11.38;;;9.90;;
38457;SDS011;24239;48.058;10.486;2022-07-10T03:10:03;11.77;;;8.98;;
38457;SDS011;24239;48.058;10.486;2022-07-10T03:12:28;12.27;;;9.55;;
38457;SDS011;24239;48.058;10.486;2022-07-10T03:14:54;12.27;;;9.65;;
38457;SDS011;24239;48.058;10.486;2022-07-10T03:17:24;9.68;;;8.68;;
38457;SDS011;24239;48.058;10.486;2022-07-10T03:19:50;13.82;;;9.45;;
38457;SDS011;24239;48.058;10.486;2022-07-10T03:22:16;11.55;;;10.25;;
38457;SDS011;24239;48.058;10.486;2022-07-10T03:24:44;11.25;;;10.15;;
38457;SDS011;24239;48.058;10.486;2022-07-10T03:27:12;14.77;;;9.85;;
38457;SDS011;24239;48.058;10.486;2022-07-10T03:29:39;11.40;;;10.20;;
38457;SDS011;24239;48.058;10.486;2022-07-10T03:32:05;11.82;;;9.73;;
38457;SDS011;24239;48.058;10.486;2022-07-10T03:34:31;10.27;;;9.18;;
38457;SDS011;24239;48.058;10.486;2022-07-10T03:36:59;10.77;;;9.40;;
38457;SDS011;24239;48.058;10.486;2022-07-10T03:39:28;11.30;;;9.35;;
38457;SDS011;24239;48.058;10.486;2022-07-10T03:41:54;9.98;;;8.68;;
38457;SDS011;24239;48.058;10.486;2022-07-10T03:44:20;9.60;;;8.45;;
38457;SDS011;24239;48.058;10.486;2022-07-10T03:46:45;10.50;;;8.80;;
38457;SDS011;24239;48.058;10.486;2022-07-10T03:49:11;11.60;;;9.25;;
38457;SDS011;24239;48.058;10.486;2022-07-10T03:51:37;9.93;;;8.90;;
38457;SDS011;24239;48.058;10.486;2022-07-10T03:54:03;10.55;;;9.48;;
38457;SDS011;24239;48.058;10.486;2022-07-10T03:56:29;11.18;;;9.80;;
38457;SDS011;24239;48.058;10.486;2022-07-10T03:59:13;10.80;;;9.70;;
38457;SDS011;24239;48.058;10.486;2022-07-10T04:01:39;11.43;;;9.52;;
38457;SDS011;24239;48.058;10.486;2022-07-10T04:04:04;10.23;;;8.23;;
38457;SDS011;24239;48.058;10.486;2022-07-10T04:06:30;8.27;;;7.50;;
38457;SDS011;24239;48.058;10.486;2022-07-10T04:08:56;8.65;;;7.75;;
38457;SDS011;24239;48.058;10.486;2022-07-10T04:11:21;8.77;;;7.88;;
38457;SDS011;24239;48.058;10.486;2022-07-10T04:13:47;10.32;;;8.38;;
38457;SDS011;24239;48.058;10.486;2022-07-10T04:16:13;8.90;;;7.43;;
38457;SDS011;24239;48.058;10.486;2022-07-10T04:18:39;9.43;;;6.97;;
38457;SDS011;24239;48.058;10.486;2022-07-10T04:21:05;8.27;;;7.40;;
38457;SDS011;24239;48.058;10.486;2022-07-10T04:23:34;12.05;;;7.40;;
38457;SDS011;24239;48.058;10.486;2022-07-10T04:26:00;8.27;;;7.38;;
38457;SDS011;24239;48.058;10.486;2022-07-10T04:28:26;9.27;;;7.60;;
38457;SDS011;24239;48.058;10.486;2022-07-10T04:30:52;8.13;;;7.30;;
38457;SDS011;24239;48.058;10.486;2022-07-10T04:33:18;10.15;;;7.70;;
38457;SDS011;24239;48.058;10.486;2022-07-10T04:35:43;9.15;;;8.13;;
38457;SDS011;24239;48.058;10.486;2022-07-10T04:38:09;9.85;;;8.00;;
38457;SDS011;24239;48.058;10.486;2022-07-10T04:40:35;8.50;;;7.45;;
38457;SDS011;24239;48.058;10.486;2022-07-10T04:43:01;9.18;;;7.38;;
38457;SDS011;24239;48.058;10.486;2022-07-10T04:45:27;11.75;;;8.50;;
38457;SDS011;24239;48.058;10.486;2022-07-10T04:47:52;8.48;;;7.22;;
38457;SDS011;24239;48.058;10.486;2022-07-10T04:50:18;9.82;;;8.07;;
38457;SDS011;24239;48.058;10.486;2022-07-10T04:52:44;9.30;;;7.25;;
38457;SDS011;24239;48.058;10.486;2022-07-10T04:55:09;8.25;;;7.45;;
38457;SDS011;24239;48.058;10.486;2022-07-10T04:57:35;9.52;;;8.57;;
38457;SDS011;24239;48.058;10.486;2022-07-10T05:00:01;10.55;;;9.02;;
38457;SDS011;24239;48.058;10.486;2022-07-10T05:02:28;9.38;;;8.38;;
38457;SDS011;24239;48.058;10.486;2022-07-10T05:04:53;9.57;;;7.88;;
38457;SDS011;24239;48.058;10.486;2022-07-10T05:07:19;12.27;;;8.70;;
38457;SDS011;24239;48.058;10.486;2022-07-10T05:09:45;12.23;;;9.35;;
38457;SDS011;24239;48.058;10.486;2022-07-10T05:12:10;11.45;;;8.68;;
38457;SDS011;24239;48.058;10.486;2022-07-10T05:14:36;12.50;;;10.00;;
38457;SDS011;24239;48.058;10.486;2022-07-10T05:17:02;12.93;;;9.75;;
38457;SDS011;24239;48.058;10.486;2022-07-10T05:19:28;10.07;;;9.07;;
38457;SDS011;24239;48.058;10.486;2022-07-10T05:21:54;11.77;;;10.27;;
38457;SDS011;24239;48.058;10.486;2022-07-10T05:24:20;11.88;;;9.85;;
38457;SDS011;24239;48.058;10.486;2022-07-10T05:26:46;11.02;;;9.82;;
38457;SDS011;24239;48.058;10.486;2022-07-10T05:29:11;11.82;;;9.55;;
38457;SDS011;24239;48.058;10.486;2022-07-10T05:31:37;14.10;;;9.77;;
38457;SDS011;24239;48.058;10.486;2022-07-10T05:34:03;10.13;;;9.13;;
38457;SDS011;24239;48.058;10.486;2022-07-10T05:36:28;13.15;;;9.80;;
38457;SDS011;24239;48.058;10.486;2022-07-10T05:38:54;11.10;;;10.02;;
38457;SDS011;24239;48.058;10.486;2022-07-10T05:41:20;11.40;;;9.43;;
38457;SDS011;24239;48.058;10.486;2022-07-10T05:43:45;11.50;;;10.30;;
38457;SDS011;24239;48.058;10.486;2022-07-10T05:46:11;12.43;;;9.15;;
38457;SDS011;24239;48.058;10.486;2022-07-10T05:48:37;16.33;;;9.88;;
38457;SDS011;24239;48.058;10.486;2022-07-10T05:51:03;12.88;;;9.15;;
38457;SDS011;24239;48.058;10.486;2022-07-10T05:53:29;13.07;;;9.40;;
38457;SDS011;24239;48.058;10.486;2022-07-10T05:55:59;11.18;;;10.02;;
38457;SDS011;24239;48.058;10.486;2022-07-10T05:58:26;11.05;;;9.65;;
38457;SDS011;24239;48.058;10.486;2022-07-10T06:00:51;13.20;;;9.45;;
38457;SDS011;24239;48.058;10.486;2022-07-10T06:03:17;9.68;;;8.68;;
38457;SDS011;24239;48.058;10.486;2022-07-10T06:05:43;12.30;;;8.90;;
38457;SDS011;24239;48.058;10.486;2022-07-10T06:08:10;9.60;;;8.52;;
38457;SDS011;24239;48.058;10.486;2022-07-10T06:10:37;11.35;;;8.60;;
38457;SDS011;24239;48.058;10.486;2022-07-10T06:13:04;13.63;;;9.02;;
38457;SDS011;24239;48.058;10.486;2022-07-10T06:15:30;9.05;;;8.02;;
38457;SDS011;24239;48.058;10.486;2022-07-10T06:17:58;11.93;;;8.90;;
38457;SDS011;24239;48.058;10.486;2022-07-10T06:20:24;9.18;;;8.23;;
38457;SDS011;24239;48.058;10.486;2022-07-10T06:22:51;11.18;;;8.77;;
38457;SDS011;24239;48.058;10.486;2022-07-10T06:25:17;9.48;;;8.57;;
38457;SDS011;24239;48.058;10.486;2022-07-10T06:27:42;11.63;;;9.35;;
38457;SDS011;24239;48.058;10.486;2022-07-10T06:30:08;11.70;;;8.70;;
38457;SDS011;24239;48.058;10.486;2022-07-10T06:32:34;12.57;;;9.07;;
38457;SDS011;24239;48.058;10.486;2022-07-10T06:35:00;11.35;;;8.82;;
38457;SDS011;24239;48.058;10.486;2022-07-10T06:37:27;11.43;;;8.95;;
38457;SDS011;24239;48.058;10.486;2022-07-10T06:39:55;14.48;;;9.10;;
38457;SDS011;24239;48.058;10.486;2022-07-10T06:42:21;13.05;;;9.43;;
38457;SDS011;24239;48.058;10.486;2022-07-10T06:44:47;10.10;;;9.13;;
38457;SDS011;24239;48.058;10.486;2022-07-10T06:47:16;11.27;;;9.65;;
38457;SDS011;24239;48.058;10.486;2022-07-10T06:50:02;12.32;;;9.07;;
38457;SDS011;24239;48.058;10.486;2022-07-10T06:52:31;12.05;;;9.50;;
38457;SDS011;24239;48.058;10.486;2022-07-10T06:55:00;10.70;;;9.60;;
38457;SDS011;24239;48.058;10.486;2022-07-10T06:57:27;9.45;;;8.52;;
38457;SDS011;24239;48.058;10.486;2022-07-10T06:59:53;12.63;;;9.15;;
38457;SDS011;24239;48.058;10.486;2022-07-10T07:02:19;12.57;;;9.63;;
38457;SDS011;24239;48.058;10.486;2022-07-10T07:04:45;9.52;;;8.32;;
38457;SDS011;24239;48.058;10.486;2022-07-10T07:07:14;12.75;;;9.27;;
38457;SDS011;24239;48.058;10.486;2022-07-10T07:09:40;13.63;;;9.48;;
38457;SDS011;24239;48.058;10.486;2022-07-10T07:12:07;11.45;;;8.38;;
38457;SDS011;24239;48.058;10.486;2022-07-10T07:14:34;11.45;;;8.43;;
38457;SDS011;24239;48.058;10.486;2022-07-10T07:17:00;12.20;;;8.88;;
38457;SDS011;24239;48.058;10.486;2022-07-10T07:19:31;11.15;;;7.50;;
38457;SDS011;24239;48.058;10.486;2022-07-10T07:22:26;8.60;;;6.80;;
38457;SDS011;24239;48.058;10.486;2022-07-10T07:25:16;9.95;;;7.60;;
38457;SDS011;24239;48.058;10.486;2022-07-10T07:27:42;8.20;;;7.18;;
38457;SDS011;24239;48.058;10.486;2022-07-10T07:30:11;10.27;;;8.07;;
38457;SDS011;24239;48.058;10.486;2022-07-10T07:32:40;9.43;;;8.13;;
38457;SDS011;24239;48.058;10.486;2022-07-10T07:35:07;9.32;;;7.43;;
38457;SDS011;24239;48.058;10.486;2022-07-10T07:37:41;8.80;;;7.13;;
38457;SDS011;24239;48.058;10.486;2022-07-10T07:40:09;8.65;;;6.97;;
38457;SDS011;24239;48.058;10.486;2022-07-10T07:42:36;9.20;;;7.30;;
38457;SDS011;24239;48.058;10.486;2022-07-10T07:45:02;10.02;;;6.72;;
38457;SDS011;24239;48.058;10.486;2022-07-10T07:47:30;9.82;;;6.45;;
38457;SDS011;24239;48.058;10.486;2022-07-10T07:49:57;8.63;;;6.88;;
38457;SDS011;24239;48.058;10.486;2022-07-10T07:52:28;11.05;;;6.32;;
38457;SDS011;24239;48.058;10.486;2022-07-10T07:54:56;8.18;;;5.93;;
38457;SDS011;24239;48.058;10.486;2022-07-10T07:57:22;8.93;;;6.80;;
38457;SDS011;24239;48.058;10.486;2022-07-10T07:59:47;8.57;;;6.78;;
38457;SDS011;24239;48.058;10.486;2022-07-10T08:02:13;9.70;;;7.65;;
38457;SDS011;24239;48.058;10.486;2022-07-10T08:04:39;9.40;;;6.07;;
38457;SDS011;24239;48.058;10.486;2022-07-10T08:07:05;9.60;;;6.85;;
38457;SDS011;24239;48.058;10.486;2022-07-10T08:09:31;7.78;;;5.85;;
38457;SDS011;24239;48.058;10.486;2022-07-10T08:11:57;8.65;;;5.90;;
38457;SDS011;24239;48.058;10.486;2022-07-10T08:14:23;7.95;;;5.68;;
38457;SDS011;24239;48.058;10.486;2022-07-10T08:16:49;9.85;;;6.05;;
38457;SDS011;24239;48.058;10.486;2022-07-10T08:19:16;9.27;;;5.85;;
38457;SDS011;24239;48.058;10.486;2022-07-10T08:21:41;7.20;;;5.93;;
38457;SDS011;24239;48.058;10.486;2022-07-10T08:24:11;7.50;;;5.55;;
38457;SDS011;24239;48.058;10.486;2022-07-10T08:26:37;7.15;;;5.28;;
38457;SDS011;24239;48.058;10.486;2022-07-10T08:29:03;7.35;;;5.03;;
38457;SDS011;24239;48.058;10.486;2022-07-10T08:31:28;7.72;;;4.60;;
38457;SDS011;24239;48.058;10.486;2022-07-10T08:33:54;10.45;;;4.97;;
38457;SDS011;24239;48.058;10.486;2022-07-10T08:36:20;7.35;;;4.47;;
38457;SDS011;24239;48.058;10.486;2022-07-10T08:38:46;5.20;;;4.70;;
38457;SDS011;24239;48.058;10.486;2022-07-10T08:41:11;6.30;;;4.68;;
38457;SDS011;24239;48.058;10.486;2022-07-10T08:43:38;4.93;;;4.50;;
38457;SDS011;24239;48.058;10.486;2022-07-10T08:46:05;7.10;;;4.38;;
38457;SDS011;24239;48.058;10.486;2022-07-10T08:48:32;6.22;;;4.32;;
38457;SDS011;24239;48.058;10.486;2022-07-10T08:51:02;5.55;;;4.07;;
38457;SDS011;24239;48.058;10.486;2022-07-10T08:53:30;8.35;;;4.55;;
38457;SDS011;24239;48.058;10.486;2022-07-10T08:55:57;4.35;;;3.70;;
38457;SDS011;24239;48.058;10.486;2022-07-10T08:58:24;6.65;;;3.90;;
38457;SDS011;24239;48.058;10.486;2022-07-10T09:00:53;5.03;;;4.07;;
38457;SDS011;24239;48.058;10.486;2022-07-10T09:03:21;7.25;;;3.85;;
38457;SDS011;24239;48.058;10.486;2022-07-10T09:05:47;7.85;;;3.80;;
38457;SDS011;24239;48.058;10.486;2022-07-10T09:08:25;6.78;;;4.20;;
38457;SDS011;24239;48.058;10.486;2022-07-10T09:11:17;5.75;;;4.45;;
38457;SDS011;24239;48.058;10.486;2022-07-10T09:13:52;6.75;;;4.45;;
38457;SDS011;24239;48.058;10.486;2022-07-10T09:16:29;6.00;;;4.15;;
38457;SDS011;24239;48.058;10.486;2022-07-10T09:18:56;7.70;;;4.57;;
38457;SDS011;24239;48.058;10.486;2022-07-10T09:21:39;5.30;;;4.30;;
38457;SDS011;24239;48.058;10.486;2022-07-10T09:24:07;9.27;;;3.83;;
38457;SDS011;24239;48.058;10.486;2022-07-10T09:26:33;5.63;;;3.92;;
38457;SDS011;24239;48.058;10.486;2022-07-10T09:29:05;6.78;;;4.15;;
38457;SDS011;24239;48.058;10.486;2022-07-10T09:31:51;4.28;;;3.65;;
38457;SDS011;24239;48.058;10.486;2022-07-10T09:34:34;6.72;;;3.88;;
38457;SDS011;24239;48.058;10.486;2022-07-10T09:37:47;7.05;;;3.97;;
38457;SDS011;24239;48.058;10.486;2022-07-10T09:39:58;7.85;;;4.38;;
38457;SDS011;24239;48.058;10.486;2022-07-10T09:42:35;9.60;;;4.03;;
38457;SDS011;24239;48.058;10.486;2022-07-10T09:52:55;5.63;;;3.70;;
38457;SDS011;24239;48.058;10.486;2022-07-10T09:55:22;8.50;;;3.72;;
38457;SDS011;24239;48.058;10.486;2022-07-10T09:57:55;6.35;;;3.28;;
38457;SDS011;24239;48.058;10.486;2022-07-10T10:00:25;5.85;;;3.17;;
38457;SDS011;24239;48.058;10.486;2022-07-10T10:02:56;4.88;;;3.13;;
38457;SDS011;24239;48.058;10.486;2022-07-10T10:05:26;7.00;;;2.80;;
38457;SDS011;24239;48.058;10.486;2022-07-10T10:10:37;3.15;;;2.55;;
38457;SDS011;24239;48.058;10.486;2022-07-10T10:13:10;3.33;;;2.40;;
38457;SDS011;24239;48.058;10.486;2022-07-10T10:15:37;4.63;;;2.35;;
38457;SDS011;24239;48.058;10.486;2022-07-10T10:18:03;4.50;;;2.70;;
38457;SDS011;24239;48.058;10.486;2022-07-10T10:20:31;4.30;;;2.30;;
38457;SDS011;24239;48.058;10.486;2022-07-10T10:23:14;3.47;;;2.60;;
38457;SDS011;24239;48.058;10.486;2022-07-10T10:25:45;3.58;;;2.60;;
38457;SDS011;24239;48.058;10.486;2022-07-10T10:28:17;4.32;;;3.10;;
38457;SDS011;24239;48.058;10.486;2022-07-10T10:30:48;4.38;;;2.58;;
38457;SDS011;24239;48.058;10.486;2022-07-10T10:36:02;3.53;;;2.22;;
38457;SDS011;24239;48.058;10.486;2022-07-10T10:41:24;3.67;;;1.98;;
38457;SDS011;24239;48.058;10.486;2022-07-10T10:49:19;3.33;;;1.90;;
38457;SDS011;24239;48.058;10.486;2022-07-10T10:57:22;3.33;;;1.92;;
38457;SDS011;24239;48.058;10.486;2022-07-10T11:00:05;3.63;;;1.95;;
38457;SDS011;24239;48.058;10.486;2022-07-10T11:02:33;2.50;;;1.88;;
38457;SDS011;24239;48.058;10.486;2022-07-10T11:08:00;3.05;;;2.05;;
38457;SDS011;24239;48.058;10.486;2022-07-10T11:10:33;8.00;;;2.10;;
38457;SDS011;24239;48.058;10.486;2022-07-10T11:15:39;3.35;;;1.73;;
38457;SDS011;24239;48.058;10.486;2022-07-10T11:18:10;4.38;;;2.00;;
38457;SDS011;24239;48.058;10.486;2022-07-10T11:20:41;3.38;;;2.00;;
38457;SDS011;24239;48.058;10.486;2022-07-10T11:23:30;2.22;;;1.98;;
38457;SDS011;24239;48.058;10.486;2022-07-10T11:29:19;3.33;;;1.70;;
38457;SDS011;24239;48.058;10.486;2022-07-10T11:31:52;2.47;;;1.90;;
38457;SDS011;24239;48.058;10.486;2022-07-10T11:34:21;2.38;;;1.90;;
38457;SDS011;24239;48.058;10.486;2022-07-10T11:36:48;3.80;;;1.83;;
38457;SDS011;24239;48.058;10.486;2022-07-10T11:39:13;2.30;;;1.98;;
38457;SDS011;24239;48.058;10.486;2022-07-10T11:41:43;2.53;;;1.85;;
38457;SDS011;24239;48.058;10.486;2022-07-10T11:44:18;2.92;;;1.90;;
38457;SDS011;24239;48.058;10.486;2022-07-10T11:46:47;3.25;;;1.98;;
38457;SDS011;24239;48.058;10.486;2022-07-10T11:49:14;6.05;;;1.92;;
38457;SDS011;24239;48.058;10.486;2022-07-10T11:51:41;4.05;;;1.77;;
38457;SDS011;24239;48.058;10.486;2022-07-10T11:54:11;4.90;;;1.95;;
38457;SDS011;24239;48.058;10.486;2022-07-10T11:56:49;4.90;;;1.95;;
38457;SDS011;24239;48.058;10.486;2022-07-10T11:59:25;4.82;;;1.60;;
38457;SDS011;24239;48.058;10.486;2022-07-10T12:01:54;3.05;;;2.10;;
38457;SDS011;24239;48.058;10.486;2022-07-10T12:04:22;4.43;;;1.80;;
38457;SDS011;24239;48.058;10.486;2022-07-10T12:06:52;5.53;;;1.80;;
38457;SDS011;24239;48.058;10.486;2022-07-10T12:09:19;5.38;;;1.98;;
38457;SDS011;24239;48.058;10.486;2022-07-10T12:11:59;4.07;;;1.92;;
38457;SDS011;24239;48.058;10.486;2022-07-10T12:14:27;2.63;;;1.63;;
38457;SDS011;24239;48.058;10.486;2022-07-10T12:16:53;5.95;;;1.88;;
38457;SDS011;24239;48.058;10.486;2022-07-10T12:19:24;2.92;;;1.73;;
38457;SDS011;24239;48.058;10.486;2022-07-10T12:22:01;3.08;;;1.52;;
38457;SDS011;24239;48.058;10.486;2022-07-10T12:24:29;3.28;;;1.80;;
38457;SDS011;24239;48.058;10.486;2022-07-10T12:26:55;4.43;;;2.00;;
38457;SDS011;24239;48.058;10.486;2022-07-10T12:31:49;3.38;;;1.88;;
38457;SDS011;24239;48.058;10.486;2022-07-10T12:34:16;4.70;;;2.08;;
38457;SDS011;24239;48.058;10.486;2022-07-10T12:39:09;3.47;;;2.13;;
38457;SDS011;24239;48.058;10.486;2022-07-10T12:41:52;6.47;;;1.70;;
38457;SDS011;24239;48.058;10.486;2022-07-10T12:47:01;2.33;;;1.55;;
38457;SDS011;24239;48.058;10.486;2022-07-10T12:52:45;6.20;;;2.08;;
38457;SDS011;24239;48.058;10.486;2022-07-10T12:55:17;2.67;;;1.60;;
38457;SDS011;24239;48.058;10.486;2022-07-10T13:05:41;3.67;;;2.10;;
38457;SDS011;24239;48.058;10.486;2022-07-10T13:10:38;3.65;;;2.20;;
38457;SDS011;24239;48.058;10.486;2022-07-10T13:13:06;6.50;;;2.10;;
38457;SDS011;24239;48.058;10.486;2022-07-10T13:15:32;3.50;;;2.20;;
38457;SDS011;24239;48.058;10.486;2022-07-10T13:18:16;2.72;;;1.88;;
38457;SDS011;24239;48.058;10.486;2022-07-10T13:20:43;3.80;;;1.80;;
38457;SDS011;24239;48.058;10.486;2022-07-10T13:23:10;2.30;;;2.00;;
38457;SDS011;24239;48.058;10.486;2022-07-10T13:25:37;1.65;;;1.55;;
38457;SDS011;24239;48.058;10.486;2022-07-10T13:28:06;2.92;;;1.63;;
38457;SDS011;24239;48.058;10.486;2022-07-10T13:30:34;3.08;;;1.70;;
38457;SDS011;24239;48.058;10.486;2022-07-10T13:33:00;2.55;;;1.80;;
38457;SDS011;24239;48.058;10.486;2022-07-10T13:35:30;2.60;;;1.80;;
38457;SDS011;24239;48.058;10.486;2022-07-10T13:37:57;4.47;;;1.80;;
38457;SDS011;24239;48.058;10.486;2022-07-10T13:40:28;3.45;;;1.85;;
38457;SDS011;24239;48.058;10.486;2022-07-10T13:42:55;2.13;;;1.75;;
38457;SDS011;24239;48.058;10.486;2022-07-10T13:45:22;2.08;;;1.83;;
38457;SDS011;24239;48.058;10.486;2022-07-10T13:47:49;4.80;;;1.90;;
38457;SDS011;24239;48.058;10.486;2022-07-10T13:50:15;6.93;;;1.80;;
38457;SDS011;24239;48.058;10.486;2022-07-10T13:52:41;2.00;;;1.75;;
38457;SDS011;24239;48.058;10.486;2022-07-10T13:55:07;3.40;;;2.55;;
38457;SDS011;24239;48.058;10.486;2022-07-10T13:57:33;2.58;;;2.35;;
38457;SDS011;24239;48.058;10.486;2022-07-10T14:00:02;3.25;;;1.88;;
38457;SDS011;24239;48.058;10.486;2022-07-10T14:02:28;5.03;;;2.05;;
38457;SDS011;24239;48.058;10.486;2022-07-10T14:04:54;2.53;;;1.80;;
38457;SDS011;24239;48.058;10.486;2022-07-10T14:07:20;4.75;;;2.05;;
38457;SDS011;24239;48.058;10.486;2022-07-10T14:09:45;2.55;;;1.70;;
38457;SDS011;24239;48.058;10.486;2022-07-10T14:12:11;3.35;;;1.73;;
38457;SDS011;24239;48.058;10.486;2022-07-10T14:14:37;2.20;;;1.80;;
38457;SDS011;24239;48.058;10.486;2022-07-10T14:17:03;3.28;;;1.90;;
38457;SDS011;24239;48.058;10.486;2022-07-10T14:19:29;4.00;;;1.85;;
38457;SDS011;24239;48.058;10.486;2022-07-10T14:21:55;2.40;;;1.48;;
38457;SDS011;24239;48.058;10.486;2022-07-10T14:24:21;1.85;;;1.60;;
38457;SDS011;24239;48.058;10.486;2022-07-10T14:26:47;2.92;;;1.55;;
38457;SDS011;24239;48.058;10.486;2022-07-10T14:29:13;3.40;;;1.98;;
38457;SDS011;24239;48.058;10.486;2022-07-10T14:31:39;3.83;;;1.65;;
38457;SDS011;24239;48.058;10.486;2022-07-10T14:34:05;5.25;;;1.98;;
38457;SDS011;24239;48.058;10.486;2022-07-10T14:36:31;5.78;;;2.22;;
38457;SDS011;24239;48.058;10.486;2022-07-10T14:38:57;2.83;;;1.70;;
38457;SDS011;24239;48.058;10.486;2022-07-10T14:41:23;3.28;;;1.70;;
38457;SDS011;24239;48.058;10.486;2022-07-10T14:43:50;2.45;;;1.77;;
38457;SDS011;24239;48.058;10.486;2022-07-10T14:46:16;2.88;;;1.75;;
38457;SDS011;24239;48.058;10.486;2022-07-10T14:48:42;5.13;;;1.90;;
38457;SDS011;24239;48.058;10.486;2022-07-10T14:51:08;5.43;;;2.40;;
38457;SDS011;24239;48.058;10.486;2022-07-10T14:53:37;4.13;;;2.10;;
38457;SDS011;24239;48.058;10.486;2022-07-10T14:56:05;4.20;;;1.90;;
38457;SDS011;24239;48.058;10.486;2022-07-10T14:58:31;4.95;;;2.33;;
38457;SDS011;24239;48.058;10.486;2022-07-10T15:00:57;4.13;;;2.60;;
38457;SDS011;24239;48.058;10.486;2022-07-10T15:03:23;4.07;;;2.03;;
38457;SDS011;24239;48.058;10.486;2022-07-10T15:05:50;3.90;;;2.00;;
38457;SDS011;24239;48.058;10.486;2022-07-10T15:08:20;2.08;;;1.70;;
38457;SDS011;24239;48.058;10.486;2022-07-10T15:10:46;2.97;;;1.77;;
38457;SDS011;24239;48.058;10.486;2022-07-10T15:13:13;4.03;;;1.25;;
38457;SDS011;24239;48.058;10.486;2022-07-10T15:15:39;5.35;;;1.88;;
38457;SDS011;24239;48.058;10.486;2022-07-10T15:18:05;2.95;;;1.90;;
38457;SDS011;24239;48.058;10.486;2022-07-10T15:20:31;5.57;;;2.63;;
38457;SDS011;24239;48.058;10.486;2022-07-10T15:22:57;2.20;;;1.65;;
38457;SDS011;24239;48.058;10.486;2022-07-10T15:25:23;1.70;;;1.20;;
38457;SDS011;24239;48.058;10.486;2022-07-10T15:27:52;3.08;;;1.52;;
38457;SDS011;24239;48.058;10.486;2022-07-10T15:30:18;5.78;;;2.42;;